Old Town, Florida
Current Conditions -  °F | °C
As of 1:28 AM on Monday 22 Dec 2014 (Local Time) from KGNV Reporting Station
Heavy Rain Heavy Rain  
Wind Chill: 63°   Ceiling: 5000
Heat Index: 63°   Visibility: 2.5mi
Dew Point: 63°   Wind: 7mph
Humidity: 100%   Direction: 170°S
Pressure: 30.04"   Gusts: NA
Location:  29.6°N, 82.98°W
Report Text: KGNV 220628Z AUTO 17006KT 2 1/2SM +RA BR SCT004 BKN050 OVC070 17/17 A3004 RMK AO2 P0009 T01720172
Loading
Personal Weather Stations






























Interactive Weather Map New forecast layout! Learn more

10-Day Weather Forecast

Advertisements
Track Severe Weather on mobile